Time;durP1;ratioP1;P1;durP2;ratioP2;P2;SDS_P1;SDS_P2;PMS_P1;PMS_P2;Temp;Humidity;BMP_temperature;BMP_pressure;BME280_temperature;BME280_humidity;BME280_pressure;Samples;Min_cycle;Max_cycle;Signal;HPM_P1;HPM_P2
2023/09/03 07:09:54;;;;;;;6.10;2.38;;;;;;;17.69;91.82;97509.16;2082557;28;20555;-66
2023/09/03 07:12:12;;;;;;;6.88;2.42;;;;;;;17.81;92.38;97516.31;2086115;28;21168;-66
2023/09/03 07:14:33;;;;;;;4.90;3.03;;;;;;;18.16;91.95;97513.34;2085222;28;20564;-66
2023/09/03 07:16:49;;;;;;;4.43;2.70;;;;;;;18.04;92.31;97504.41;2082155;28;21072;-66
2023/09/03 07:19:09;;;;;;;3.72;2.25;;;;;;;18.00;92.79;97509.97;2084408;28;20555;-66
2023/09/03 07:21:34;;;;;;;7.65;2.70;;;;;;;17.77;92.19;97510.38;2093092;27;20687;-66
2023/09/03 07:24:00;;;;;;;11.05;2.45;;;;;;;17.97;91.46;97512.78;2112248;27;21084;-66
2023/09/03 07:25:03;;;;;;;4.72;2.42;;;;;;;18.17;90.60;97508.91;2105019;28;20183;-66
2023/09/03 07:27:24;;;;;;;6.90;2.42;;;;;;;18.20;90.93;97522.78;2084592;28;20564;-66
2023/09/03 07:28:25;;;;;;;7.35;3.08;;;;;;;18.37;90.09;97519.13;2076098;28;20772;-66
2023/09/03 07:29:27;;;;;;;5.20;2.60;;;;;;;18.41;89.78;97515.31;2074969;28;20370;-66
2023/09/03 07:31:47;;;;;;;4.95;2.80;;;;;;;19.01;88.04;97520.44;2084816;28;20572;-67
2023/09/03 07:32:48;;;;;;;4.32;2.10;;;;;;;19.08;87.83;97519.94;2081499;28;20208;-67
2023/09/03 07:33:50;;;;;;;5.53;2.00;;;;;;;19.23;87.61;97518.03;2073982;28;20716;-67
2023/09/03 07:34:53;;;;;;;6.10;2.47;;;;;;;19.34;87.65;97525.28;2072535;28;20193;-66
2023/09/03 07:35:54;;;;;;;4.38;2.60;;;;;;;19.46;87.72;97517.47;2073918;28;20247;-67
2023/09/03 07:36:56;;;;;;;4.10;2.30;;;;;;;19.30;87.59;97521.16;2074199;28;20251;-67
2023/09/03 07:37:57;;;;;;;6.88;2.00;;;;;;;19.47;87.85;97520.03;2071050;28;20224;-67
2023/09/03 07:38:59;;;;;;;4.15;2.45;;;;;;;19.44;87.83;97525.53;2075025;28;20662;-67
2023/09/03 07:40:00;;;;;;;6.63;2.50;;;;;;;19.67;86.67;97523.13;2072832;28;20292;-67
2023/09/03 07:41:02;;;;;;;4.05;2.50;;;;;;;19.83;85.01;97534.44;2064624;28;20203;-67
2023/09/03 07:42:03;;;;;;;4.25;1.90;;;;;;;19.85;85.03;97535.16;2072513;28;20208;-67
2023/09/03 07:43:05;;;;;;;4.78;2.60;;;;;;;19.88;84.62;97542.91;2072284;28;20225;-67
2023/09/03 07:44:08;;;;;;;5.20;2.30;;;;;;;20.03;84.80;97537.50;2069486;28;20833;-67
2023/09/03 07:45:10;;;;;;;6.60;2.47;;;;;;;20.21;83.72;97530.94;2071493;28;20193;-67
2023/09/03 07:46:11;;;;;;;4.55;2.38;;;;;;;20.11;83.42;97529.00;2071714;28;20344;-67
2023/09/03 07:47:13;;;;;;;4.57;2.40;;;;;;;20.21;83.96;97535.38;2072093;28;20217;-67
2023/09/03 07:48:14;;;;;;;13.75;2.03;;;;;;;20.35;84.04;97529.97;2073403;28;20224;-67
2023/09/03 07:49:16;;;;;;;5.22;2.40;;;;;;;20.63;82.88;97540.41;2073815;28;20648;-67
2023/09/03 07:50:17;;;;;;;4.45;2.83;;;;;;;20.62;82.53;97533.38;2074926;28;20205;-67
2023/09/03 07:51:20;;;;;;;3.63;2.50;;;;;;;20.57;83.18;97533.75;2073882;28;20208;-67
2023/09/03 07:52:21;;;;;;;4.43;2.25;;;;;;;20.48;83.22;97532.59;2074100;28;20194;-67
2023/09/03 07:53:22;;;;;;;6.13;2.35;;;;;;;20.45;83.37;97537.25;2072231;28;20309;-67
2023/09/03 07:54:24;;;;;;;4.93;2.20;;;;;;;20.39;83.61;97536.72;2075269;28;20281;-67
2023/09/03 07:55:26;;;;;;;3.40;1.90;;;;;;;20.50;83.54;97540.44;2068919;28;20268;-67
2023/09/03 07:56:27;;;;;;;7.53;2.30;;;;;;;20.34;83.51;97536.22;2071169;28;20197;-68
2023/09/03 07:57:31;;;;;;;5.15;2.10;;;;;;;20.60;84.17;97540.63;2071406;28;20200;-67
2023/09/03 07:58:33;;;;;;;6.63;2.65;;;;;;;20.89;82.86;97546.53;2070828;28;20313;-67
2023/09/03 07:59:35;;;;;;;4.25;2.10;;;;;;;20.99;82.24;97544.88;2075819;28;20870;-68
2023/09/03 08:00:38;;;;;;;3.72;2.28;;;;;;;21.40;80.61;97539.31;2072516;28;20212;-67
2023/09/03 08:01:40;;;;;;;4.22;2.20;;;;;;;21.78;79.42;97541.72;2074971;28;20839;-67
2023/09/03 08:02:41;;;;;;;5.60;2.60;;;;;;;21.94;78.94;97545.88;2072205;28;20644;-67
2023/09/03 08:03:43;;;;;;;4.85;2.20;;;;;;;21.83;80.03;97550.22;2074212;28;20197;-67
2023/09/03 08:04:47;;;;;;;8.35;2.42;;;;;;;21.73;78.57;97540.41;2070865;28;20225;-68
2023/09/03 08:05:49;;;;;;;3.92;2.50;;;;;;;21.72;79.56;97546.69;2070475;28;20576;-67
2023/09/03 08:06:51;;;;;;;5.45;2.33;;;;;;;21.95;79.38;97548.44;2071754;28;20195;-67
2023/09/03 08:07:53;;;;;;;4.15;2.05;;;;;;;22.05;77.85;97545.91;2071769;28;20675;-67
2023/09/03 08:08:56;;;;;;;8.13;2.60;;;;;;;22.34;76.71;97546.28;2070783;28;20680;-67
2023/09/03 08:09:58;;;;;;;4.63;2.20;;;;;;;22.48;76.81;97547.06;2069066;28;20198;-67
2023/09/03 08:11:00;;;;;;;5.70;2.35;;;;;;;22.48;77.11;97545.22;2081010;28;20593;-68
2023/09/03 08:12:02;;;;;;;4.35;2.13;;;;;;;22.06;78.49;97544.94;2078034;28;20212;-67
2023/09/03 08:13:03;;;;;;;3.40;2.10;;;;;;;22.23;78.58;97548.94;2070886;28;20317;-67
2023/09/03 08:14:05;;;;;;;5.75;2.10;;;;;;;22.23;78.04;97548.09;2069794;28;20293;-66
2023/09/03 08:15:07;;;;;;;8.93;2.20;;;;;;;22.60;77.35;97553.19;2068813;28;20202;-64
2023/09/03 08:16:09;;;;;;;6.75;3.00;;;;;;;22.46;77.23;97557.81;2068831;28;20206;-66
2023/09/03 08:17:10;;;;;;;15.02;9.07;;;;;;;22.50;77.45;97553.94;2069750;28;20281;-67
2023/09/03 08:18:11;;;;;;;24.95;16.92;;;;;;;22.66;76.97;97552.72;2069113;28;20221;-67
2023/09/03 08:19:13;;;;;;;24.85;16.83;;;;;;;22.59;76.62;97557.69;2070761;28;20225;-66
2023/09/03 08:20:15;;;;;;;14.10;6.22;;;;;;;22.68;76.42;97556.13;2072424;28;20487;-67
2023/09/03 08:21:16;;;;;;;39.30;29.73;;;;;;;22.69;76.85;97563.13;2069373;28;20206;-66
2023/09/03 08:22:18;;;;;;;8.85;4.63;;;;;;;22.65;77.05;97565.19;2068558;28;20198;-66
2023/09/03 08:23:19;;;;;;;10.05;2.30;;;;;;;23.07;75.65;97563.66;2070904;28;20225;-66
2023/09/03 08:24:22;;;;;;;5.80;2.28;;;;;;;22.83;76.03;97565.53;2068697;28;20206;-69
2023/09/03 08:25:23;;;;;;;4.15;1.73;;;;;;;22.91;76.56;97567.56;2074992;28;20217;-68
2023/09/03 08:26:25;;;;;;;3.40;1.98;;;;;;;23.15;75.95;97570.09;2072605;28;20203;-68
2023/09/03 08:27:26;;;;;;;4.60;2.20;;;;;;;23.32;76.31;97562.53;2072977;28;20202;-68
2023/09/03 08:28:28;;;;;;;3.35;2.13;;;;;;;23.33;74.42;97564.22;2067314;28;20632;-68
2023/09/03 08:29:29;;;;;;;4.50;1.83;;;;;;;23.52;74.27;97563.56;2069560;28;20333;-69
2023/09/03 08:30:31;;;;;;;3.47;1.88;;;;;;;24.06;72.72;97568.88;2071265;28;20212;-68
2023/09/03 08:31:32;;;;;;;4.40;1.75;;;;;;;24.23;72.69;97570.94;2071663;28;20238;-69
2023/09/03 08:32:35;;;;;;;4.65;1.75;;;;;;;-145.49;100.00;55703.94;2066675;28;20290;-69
2023/09/03 08:33:37;;;;;;;2.70;1.50;;;;;;;-145.49;100.00;55703.94;2067198;28;20226;-68
2023/09/03 08:34:39;;;;;;;2.15;1.35;;;;;;;-145.49;100.00;55703.94;2070670;28;20665;-69
2023/09/03 08:35:40;;;;;;;15.10;1.70;;;;;;;-145.49;100.00;55703.94;2068718;28;20301;-68
2023/09/03 08:36:42;;;;;;;2.58;1.30;;;;;;;-145.49;100.00;55703.94;2068279;28;20662;-69
2023/09/03 08:37:44;;;;;;;3.88;1.52;;;;;;;-145.49;100.00;55703.94;2068495;28;20205;-69
2023/09/03 08:38:45;;;;;;;4.88;1.65;;;;;;;-145.49;100.00;55703.94;2072164;28;20198;-69
2023/09/03 08:39:47;;;;;;;2.00;1.20;;;;;;;-145.49;100.00;55703.94;2070755;28;20194;-69
2023/09/03 08:40:48;;;;;;;2.67;1.48;;;;;;;-145.49;100.00;55703.94;2066332;28;20241;-69
2023/09/03 08:41:50;;;;;;;5.43;1.70;;;;;;;-145.49;100.00;55703.94;2074099;28;20791;-69
2023/09/03 08:42:53;;;;;;;8.68;1.45;;;;;;;-145.49;100.00;55703.94;2069116;28;20198;-69
2023/09/03 08:44:03;;;;;;;3.05;1.75;;;;;;;-145.49;100.00;55703.94;2066897;28;20202;-69
2023/09/03 08:45:06;;;;;;;2.70;1.60;;;;;;;-145.49;100.00;55703.94;2061790;28;20198;-69
2023/09/03 08:46:10;;;;;;;4.28;1.65;;;;;;;-145.49;100.00;55703.94;2062413;28;20194;-69
2023/09/03 08:47:16;;;;;;;3.35;1.40;;;;;;;-145.49;100.00;55703.94;2063265;28;20199;-69
2023/09/03 08:48:17;;;;;;;2.40;1.38;;;;;;;-145.49;100.00;55703.94;2060350;28;20227;-69
2023/09/03 08:49:19;;;;;;;2.17;1.38;;;;;;;-145.49;100.00;55703.94;2062479;28;20204;-69
2023/09/03 08:50:22;;;;;;;2.28;1.40;;;;;;;-145.49;100.00;55703.94;2064999;28;20207;-69
2023/09/03 08:51:25;;;;;;;3.88;1.40;;;;;;;-145.49;100.00;55703.94;2064040;28;20203;-69
2023/09/03 08:52:28;;;;;;;2.70;1.20;;;;;;;-145.49;100.00;55703.94;2063142;28;20280;-69
2023/09/03 08:53:32;;;;;;;2.25;1.25;;;;;;;-145.49;100.00;55703.94;2062140;28;20275;-70
2023/09/03 08:54:33;;;;;;;3.42;1.55;;;;;;;-145.49;100.00;55703.94;2065444;28;20475;-69
2023/09/03 08:55:36;;;;;;;3.30;1.42;;;;;;;-145.49;100.00;55703.94;2061612;28;20269;-70
2023/09/03 08:56:38;;;;;;;2.72;1.30;;;;;;;-145.49;100.00;55703.94;2060812;28;20206;-70
2023/09/03 08:57:41;;;;;;;6.10;1.80;;;;;;;-145.49;100.00;55703.94;2066931;28;20865;-70
2023/09/03 08:58:42;;;;;;;4.72;1.52;;;;;;;-145.49;100.00;55703.94;2069657;28;20717;-68
2023/09/03 08:59:44;;;;;;;2.22;1.63;;;;;;;-145.49;100.00;55703.94;2068286;28;20195;-68
2023/09/03 09:00:45;;;;;;;7.32;5.00;;;;;;;-145.49;100.00;55703.94;2067549;28;20561;-68
2023/09/03 09:01:52;;;;;;;26.07;19.43;;;;;;;-145.49;100.00;55703.94;2065367;28;20217;-68
2023/09/03 09:02:54;;;;;;;22.85;14.77;;;;;;;-145.49;100.00;55703.94;2066098;28;20447;-67
2023/09/03 09:04:01;;;;;;;21.38;15.20;;;;;;;-145.49;100.00;55703.94;2063893;28;20710;-68
2023/09/03 09:05:08;;;;;;;23.10;14.85;;;;;;;-145.49;100.00;55703.94;2062444;28;20194;-68
2023/09/03 09:06:12;;;;;;;7.75;5.35;;;;;;;-145.49;100.00;55703.94;2065010;28;20203;-68
2023/09/03 09:07:14;;;;;;;3.97;1.80;;;;;;;-145.49;100.00;55703.94;2068121;28;20853;-68
2023/09/03 09:08:16;;;;;;;6.85;1.40;;;;;;;-145.49;100.00;55703.94;2067100;28;20226;-68
2023/09/03 09:09:20;;;;;;;3.10;1.50;;;;;;;-145.49;100.00;55703.94;2069391;28;20194;-68
2023/09/03 09:10:27;;;;;;;2.33;1.45;;;;;;;-145.49;100.00;55703.94;2063724;28;20460;-68
2023/09/03 09:11:34;;;;;;;3.25;1.73;;;;;;;-145.49;100.00;55703.94;2068086;28;20202;-68
2023/09/03 09:12:49;;;;;;;3.20;1.30;;;;;;;-145.49;100.00;55703.94;2073267;28;20730;-67
2023/09/03 09:13:57;;;;;;;3.67;1.10;;;;;;;-145.49;100.00;55703.94;2063741;28;20423;-67
2023/09/03 09:15:04;;;;;;;2.47;1.30;;;;;;;-145.49;100.00;55703.94;2059750;28;20429;-68
2023/09/03 09:16:05;;;;;;;3.30;1.00;;;;;;;-145.49;100.00;55703.94;2063650;28;20427;-64
2023/09/03 09:17:12;;;;;;;2.83;1.23;;;;;;;-145.49;100.00;55703.94;2065665;28;20428;-65
2023/09/03 09:18:14;;;;;;;3.73;1.43;;;;;;;-145.49;100.00;55703.94;2068753;28;20572;-65
2023/09/03 09:19:17;;;;;;;2.90;1.57;;;;;;;-145.49;100.00;55703.94;2069119;28;20463;-65
2023/09/03 09:20:19;;;;;;;2.80;1.10;;;;;;;-145.49;100.00;55703.94;2069863;28;20431;-67
2023/09/03 09:21:21;;;;;;;3.08;1.25;;;;;;;-145.49;100.00;55703.94;2066979;28;20421;-66
2023/09/03 09:22:23;;;;;;;2.00;0.97;;;;;;;-145.49;100.00;55703.94;2065332;28;20248;-66
2023/09/03 09:23:27;;;;;;;2.13;1.03;;;;;;;-145.49;100.00;55703.94;2067156;28;20529;-66
2023/09/03 09:24:28;;;;;;;3.50;1.30;;;;;;;-145.49;100.00;55703.94;2066603;28;20432;-66
2023/09/03 09:25:30;;;;;;;3.20;1.20;;;;;;;-145.49;100.00;55703.94;2067314;28;20435;-66
2023/09/03 09:26:32;;;;;;;2.60;1.30;;;;;;;-145.49;100.00;55703.94;2065894;28;20448;-66
2023/09/03 09:27:40;;;;;;;1.53;1.10;;;;;;;-145.49;100.00;55703.94;2064547;28;20503;-67
2023/09/03 09:28:59;;;;;;;2.03;1.00;;;;;;;-145.49;100.00;55703.94;2065118;28;20912;-66
2023/09/03 09:30:24;;;;;;;2.57;1.00;;;;;;;-145.49;100.00;55703.94;2065005;28;20471;-66
2023/09/03 09:31:35;;;;;;;3.20;1.20;;;;;;;-145.49;100.00;55703.94;2058983;28;20492;-67
2023/09/03 09:32:37;;;;;;;3.63;1.20;;;;;;;-145.49;100.00;55703.94;2059200;28;20473;-66
2023/09/03 09:33:50;;;;;;;2.10;1.10;;;;;;;-145.49;100.00;55703.94;2064853;28;20476;-66
2023/09/03 09:34:51;;;;;;;1.87;1.00;;;;;;;-145.49;100.00;55703.94;2066069;28;20420;-66
2023/09/03 09:35:53;;;;;;;1.97;0.90;;;;;;;-145.49;100.00;55703.94;2065958;28;20520;-66
2023/09/03 09:36:55;;;;;;;2.43;1.33;;;;;;;-145.49;100.00;55703.94;2066717;28;20428;-66
2023/09/03 09:38:04;;;;;;;1.60;1.00;;;;;;;-145.49;100.00;55703.94;2068316;28;20522;-66
2023/09/03 09:39:08;;;;;;;2.97;1.10;;;;;;;-145.49;100.00;55703.94;2067053;28;20424;-65
2023/09/03 09:40:12;;;;;;;2.07;1.20;;;;;;;-145.49;100.00;55703.94;2060862;28;20425;-66
2023/09/03 09:41:25;;;;;;;2.80;1.13;;;;;;;-145.49;100.00;55703.94;2058719;28;20445;-66
2023/09/03 09:42:27;;;;;;;25.20;17.90;;;;;;;-145.49;100.00;55703.94;2061129;28;20419;-66
2023/09/03 09:43:45;;;;;;;29.03;20.27;;;;;;;-145.49;100.00;55703.94;2064016;28;20463;-66
2023/09/03 09:44:53;;;;;;;5.47;4.10;;;;;;;-145.49;100.00;55703.94;2065151;28;20498;-66
2023/09/03 09:45:54;;;;;;;7.73;6.07;;;;;;;-145.49;100.00;55703.94;2064039;28;20677;-67
2023/09/03 09:46:56;;;;;;;5.77;3.50;;;;;;;-145.49;100.00;55703.94;2068856;28;20825;-66
2023/09/03 09:48:08;;;;;;;7.40;1.20;;;;;;;-145.49;100.00;55703.94;2067552;28;20482;-66
2023/09/03 09:49:10;;;;;;;2.00;1.23;;;;;;;-145.49;100.00;55703.94;2067366;28;20470;-66
2023/09/03 09:50:12;;;;;;;1.90;1.30;;;;;;;-145.49;100.00;55703.94;2062302;28;20883;-66
2023/09/03 09:51:13;;;;;;;2.40;1.17;;;;;;;-145.49;100.00;55703.94;2064345;28;20482;-66
2023/09/03 09:52:15;;;;;;;2.10;1.20;;;;;;;-145.49;100.00;55703.94;2066439;28;21162;-66
2023/09/03 09:53:25;;;;;;;1.57;1.17;;;;;;;-145.49;100.00;55703.94;2066283;28;20456;-66
2023/09/03 09:54:37;;;;;;;4.70;1.20;;;;;;;-145.49;100.00;55703.94;2066394;28;20427;-66
2023/09/03 09:55:39;;;;;;;4.93;1.50;;;;;;;-145.49;100.00;55703.94;2067706;28;20424;-68
2023/09/03 09:56:40;;;;;;;3.10;1.20;;;;;;;-145.49;100.00;55703.94;2064068;28;20438;-68
2023/09/03 09:57:42;;;;;;;2.37;1.33;;;;;;;-145.49;100.00;55703.94;2065578;28;20430;-68
2023/09/03 09:58:43;;;;;;;1.73;1.20;;;;;;;-145.49;100.00;55703.94;2067275;28;20489;-69
2023/09/03 09:59:54;;;;;;;2.43;1.03;;;;;;;-145.49;100.00;55703.94;2067031;28;20428;-68
2023/09/03 10:00:55;;;;;;;2.77;1.40;;;;;;;-145.49;100.00;55703.94;2066703;28;20423;-68
2023/09/03 10:01:58;;;;;;;3.60;1.23;;;;;;;-145.49;100.00;55703.94;2059095;28;20468;-68
2023/09/03 10:02:59;;;;;;;2.37;1.20;;;;;;;-145.49;100.00;55703.94;2063478;28;20451;-68
2023/09/03 10:04:01;;;;;;;3.17;1.10;;;;;;;-145.49;100.00;55703.94;2064387;28;20433;-69
2023/09/03 10:05:09;;;;;;;7.43;1.13;;;;;;;-145.49;100.00;55703.94;2064471;28;20499;-69
2023/09/03 10:06:17;;;;;;;4.77;1.70;;;;;;;-145.49;100.00;55703.94;2063534;28;20461;-68
2023/09/03 10:07:19;;;;;;;4.60;1.00;;;;;;;-145.49;100.00;55703.94;2066685;28;20468;-68
2023/09/03 10:08:20;;;;;;;1.83;0.70;;;;;;;-145.49;100.00;55703.94;2066949;28;20455;-68
2023/09/03 10:09:22;;;;;;;1.60;1.00;;;;;;;-145.49;100.00;55703.94;2066745;28;20434;-68
2023/09/03 10:10:23;;;;;;;2.50;1.30;;;;;;;-145.49;100.00;55703.94;2068578;28;20487;-69
2023/09/03 10:11:25;;;;;;;3.30;0.97;;;;;;;-145.49;100.00;55703.94;2066373;28;20417;-69
2023/09/03 10:12:27;;;;;;;4.60;1.10;;;;;;;-145.49;100.00;55703.94;2063334;28;20997;-69
2023/09/03 10:13:32;;;;;;;1.47;1.00;;;;;;;-145.49;100.00;55703.94;2061121;28;20534;-69
2023/09/03 10:14:34;;;;;;;4.77;1.37;;;;;;;-145.49;100.00;55703.94;2062251;28;20904;-69
2023/09/03 10:15:38;;;;;;;2.00;1.13;;;;;;;-145.49;100.00;55703.94;2061470;28;20428;-69
2023/09/03 10:16:40;;;;;;;2.00;1.20;;;;;;;-145.49;100.00;55703.94;2062911;28;20431;-68
2023/09/03 10:17:49;;;;;;;1.60;1.03;;;;;;;-145.49;100.00;55703.94;2063978;28;20466;-68
2023/09/03 10:18:51;;;;;;;3.50;1.30;;;;;;;-145.49;100.00;55703.94;2070998;28;20411;-68
2023/09/03 10:20:04;;;;;;;5.60;1.20;;;;;;;-145.49;100.00;55703.94;2074638;28;20977;-69
2023/09/03 10:21:07;;;;;;;1.87;0.87;;;;;;;-145.49;100.00;55703.94;2066630;28;20482;-68
2023/09/03 10:22:14;;;;;;;1.90;0.80;;;;;;;-145.49;100.00;55703.94;2066663;28;20431;-69
2023/09/03 10:23:21;;;;;;;2.93;1.07;;;;;;;-145.49;100.00;55703.94;2064718;28;20460;-69
2023/09/03 10:24:26;;;;;;;2.00;1.00;;;;;;;-145.49;100.00;55703.94;2065995;28;20799;-69
2023/09/03 10:25:30;;;;;;;3.93;1.20;;;;;;;-145.49;100.00;55703.94;2063880;28;20908;-69
2023/09/03 10:26:37;;;;;;;3.87;1.07;;;;;;;-145.49;100.00;55703.94;2065642;28;20565;-69
2023/09/03 10:27:45;;;;;;;2.20;1.00;;;;;;;-145.49;100.00;55703.94;2062043;28;20436;-69
2023/09/03 10:28:51;;;;;;;2.33;1.30;;;;;;;-145.49;100.00;55703.94;2062648;28;20504;-69
2023/09/03 10:29:55;;;;;;;1.90;1.07;;;;;;;-145.49;100.00;55703.94;2070707;28;20519;-69
2023/09/03 10:30:57;;;;;;;2.07;1.13;;;;;;;-145.49;100.00;55703.94;2067586;28;20517;-69
2023/09/03 10:32:02;;;;;;;1.40;0.87;;;;;;;-145.49;100.00;55703.94;2067560;28;20492;-69
2023/09/03 10:33:07;;;;;;;2.00;0.90;;;;;;;-145.49;100.00;55703.94;2064619;28;21433;-69
2023/09/03 10:34:10;;;;;;;1.30;0.87;;;;;;;-145.49;100.00;55703.94;2065125;28;20445;-69
2023/09/03 10:35:13;;;;;;;1.37;0.83;;;;;;;-145.49;100.00;55703.94;2066044;28;20515;-69
2023/09/03 10:36:19;;;;;;;1.70;0.90;;;;;;;-145.49;100.00;55703.94;2069422;28;20427;-68
2023/09/03 10:37:22;;;;;;;1.73;1.00;;;;;;;-145.49;100.00;55703.94;2066621;28;20420;-69
2023/09/03 10:38:30;;;;;;;1.30;0.70;;;;;;;-145.49;100.00;55703.94;2066504;28;20471;-69
2023/09/03 10:39:37;;;;;;;4.03;2.40;;;;;;;-145.49;100.00;55703.94;2065555;28;20542;-69
2023/09/03 10:40:39;;;;;;;2.87;0.90;;;;;;;-145.49;100.00;55703.94;2057741;28;20461;-69
2023/09/03 10:41:40;;;;;;;2.50;1.20;;;;;;;-145.49;100.00;55703.94;2052411;28;20473;-69
2023/09/03 10:42:42;;;;;;;1.20;0.90;;;;;;;-145.49;100.00;55703.94;2061039;28;20444;-69
2023/09/03 10:43:45;;;;;;;3.03;1.10;;;;;;;-145.49;100.00;55703.94;2065848;28;20419;-69
2023/09/03 10:44:51;;;;;;;3.57;1.20;;;;;;;-145.49;100.00;55703.94;2068743;28;20922;-69
2023/09/03 10:46:06;;;;;;;4.70;1.00;;;;;;;-145.49;100.00;55703.94;2067488;28;20498;-69
2023/09/03 10:47:10;;;;;;;5.50;1.00;;;;;;;-145.49;100.00;55703.94;2065841;28;20435;-69
2023/09/03 10:48:16;;;;;;;6.00;0.90;;;;;;;-145.49;100.00;55703.94;2067173;28;20459;-69
2023/09/03 10:49:17;;;;;;;3.17;1.10;;;;;;;-145.49;100.00;55703.94;2067265;28;20993;-69
2023/09/03 10:50:43;;;;;;;3.30;1.00;;;;;;;-145.49;100.00;55703.94;2068759;28;20442;-69
2023/09/03 10:51:44;;;;;;;4.37;1.10;;;;;;;-145.49;100.00;55703.94;2064013;28;20448;-70
2023/09/03 10:52:46;;;;;;;4.17;1.50;;;;;;;-145.49;100.00;55703.94;2065742;28;20534;-71
2023/09/03 10:53:47;;;;;;;1.30;0.80;;;;;;;-145.49;100.00;55703.94;2067098;28;20818;-68
2023/09/03 10:55:08;;;;;;;1.53;0.90;;;;;;;-145.49;100.00;55703.94;2065277;28;20459;-66
2023/09/03 10:56:16;;;;;;;1.40;0.93;;;;;;;-145.49;100.00;55703.94;2070081;28;20467;-65
2023/09/03 10:57:18;;;;;;;1.57;1.00;;;;;;;-145.49;100.00;55703.94;2063507;28;20408;-66
2023/09/03 10:58:30;;;;;;;2.87;1.10;;;;;;;-145.49;100.00;55703.94;2064380;28;20856;-66
2023/09/03 10:59:57;;;;;;;2.43;1.10;;;;;;;-145.49;100.00;55703.94;2066548;28;20486;-66
2023/09/03 11:01:19;;;;;;;1.63;0.90;;;;;;;-145.49;100.00;55703.94;2067814;28;20481;-65
2023/09/03 11:02:25;;;;;;;1.40;0.80;;;;;;;-145.49;100.00;55703.94;2068532;28;20426;-65
2023/09/03 11:03:28;;;;;;;3.03;0.93;;;;;;;-145.49;100.00;55703.94;2067031;28;20539;-65
2023/09/03 11:04:37;;;;;;;1.33;1.00;;;;;;;-145.49;100.00;55703.94;2069655;28;20444;-66
2023/09/03 11:05:39;;;;;;;4.20;1.27;;;;;;;-145.49;100.00;55703.94;2062660;28;20971;-66
2023/09/03 11:06:40;;;;;;;1.60;1.00;;;;;;;-145.49;100.00;55703.94;2065168;28;21150;-65
2023/09/03 11:07:43;;;;;;;1.50;0.90;;;;;;;-145.49;100.00;55703.94;2064020;28;20757;-66
2023/09/03 11:08:46;;;;;;;3.10;1.07;;;;;;;-145.49;100.00;55703.94;2065464;28;20506;-66
2023/09/03 11:09:48;;;;;;;1.37;0.80;;;;;;;-145.49;100.00;55703.94;2064615;28;20423;-65
2023/09/03 11:10:53;;;;;;;3.73;0.97;;;;;;;-145.49;100.00;55703.94;2066195;28;20436;-66
2023/09/03 11:12:00;;;;;;;1.30;1.00;;;;;;;-145.49;100.00;55703.94;2068219;28;20427;-65
2023/09/03 11:13:04;;;;;;;1.70;0.90;;;;;;;-145.49;100.00;55703.94;2062186;28;20474;-66
2023/09/03 11:14:06;;;;;;;1.43;0.80;;;;;;;-145.49;100.00;55703.94;2063115;28;21024;-65
2023/09/03 11:15:09;;;;;;;1.70;1.10;;;;;;;-145.49;100.00;55703.94;2065639;28;20427;-65
2023/09/03 11:16:10;;;;;;;1.63;0.87;;;;;;;-145.49;100.00;55703.94;2064046;28;20503;-65
2023/09/03 11:17:13;;;;;;;2.00;0.90;;;;;;;-145.49;100.00;55703.94;2066903;28;20455;-65
2023/09/03 11:18:20;;;;;;;1.77;0.80;;;;;;;-145.49;100.00;55703.94;2064963;28;21218;-66
2023/09/03 11:19:21;;;;;;;3.30;0.90;;;;;;;-145.49;100.00;55703.94;2065950;28;20939;-66
2023/09/03 11:20:28;;;;;;;6.63;1.30;;;;;;;-145.49;100.00;55703.94;2072978;28;20538;-65
2023/09/03 11:21:49;;;;;;;2.90;1.00;;;;;;;-145.49;100.00;55703.94;2063010;28;20442;-65
2023/09/03 11:22:51;;;;;;;1.60;0.90;;;;;;;-145.49;100.00;55703.94;2065139;28;20431;-66
2023/09/03 11:24:06;;;;;;;8.03;0.97;;;;;;;-145.49;100.00;55703.94;2061305;28;20423;-65
2023/09/03 11:25:07;;;;;;;1.90;0.90;;;;;;;-145.49;100.00;55703.94;2067878;28;20752;-66
2023/09/03 11:26:13;;;;;;;3.77;0.90;;;;;;;-145.49;100.00;55703.94;2060762;28;20447;-66
2023/09/03 11:27:14;;;;;;;1.87;1.20;;;;;;;-145.49;100.00;55703.94;2062952;28;20629;-66
2023/09/03 11:28:16;;;;;;;1.50;1.00;;;;;;;-145.49;100.00;55703.94;2062220;28;20470;-66
2023/09/03 11:29:24;;;;;;;5.53;0.90;;;;;;;-145.49;100.00;55703.94;2062733;28;20436;-66
2023/09/03 11:30:26;;;;;;;1.80;1.00;;;;;;;-145.49;100.00;55703.94;2066713;28;20437;-66
2023/09/03 11:31:28;;;;;;;1.70;0.80;;;;;;;-145.49;100.00;55703.94;2065864;28;20462;-66
2023/09/03 11:32:37;;;;;;;2.03;0.80;;;;;;;-145.49;100.00;55703.94;2066100;28;20435;-66
2023/09/03 11:33:38;;;;;;;2.30;0.93;;;;;;;-145.49;100.00;55703.94;2065316;28;20499;-66
2023/09/03 11:34:39;;;;;;;1.33;0.70;;;;;;;-145.49;100.00;55703.94;2065938;28;20765;-68
2023/09/03 11:35:44;;;;;;;1.50;0.90;;;;;;;-145.49;100.00;55703.94;2065288;28;20435;-68
2023/09/03 11:36:46;;;;;;;1.37;0.90;;;;;;;-145.49;100.00;55703.94;2076259;28;20925;-68
2023/09/03 11:37:49;;;;;;;2.83;0.80;;;;;;;-145.49;100.00;55703.94;2070160;28;20802;-67
2023/09/03 11:38:55;;;;;;;1.43;0.90;;;;;;;-145.49;100.00;55703.94;2064261;28;20429;-67
2023/09/03 11:39:56;;;;;;;2.23;0.80;;;;;;;-145.49;100.00;55703.94;2061001;28;20895;-68
2023/09/03 11:40:58;;;;;;;1.30;0.80;;;;;;;-145.49;100.00;55703.94;2063594;28;20934;-67
2023/09/03 11:42:00;;;;;;;1.53;0.80;;;;;;;-145.49;100.00;55703.94;2064687;28;21019;-67
2023/09/03 11:43:02;;;;;;;3.40;0.90;;;;;;;-145.49;100.00;55703.94;2066106;28;20568;-68
2023/09/03 11:44:04;;;;;;;1.20;0.83;;;;;;;-145.49;100.00;55703.94;2065170;28;20506;-67
2023/09/03 11:45:06;;;;;;;1.30;0.80;;;;;;;-145.49;100.00;55703.94;2065392;28;20428;-67
2023/09/03 11:46:16;;;;;;;3.07;1.37;;;;;;;-145.49;100.00;55703.94;2064865;28;20428;-67
2023/09/03 11:47:18;;;;;;;4.37;0.83;;;;;;;-145.49;100.00;55703.94;2065124;28;20436;-67
2023/09/03 11:48:27;;;;;;;2.70;0.83;;;;;;;-145.49;100.00;55703.94;2064538;28;20455;-67
2023/09/03 11:49:29;;;;;;;2.90;0.80;;;;;;;-145.49;100.00;55703.94;2066912;28;20432;-67
2023/09/03 11:50:30;;;;;;;3.33;0.80;;;;;;;-145.49;100.00;55703.94;2065218;28;20454;-67
2023/09/03 11:51:31;;;;;;;1.80;0.73;;;;;;;-145.49;100.00;55703.94;2068854;28;20428;-67
2023/09/03 11:52:33;;;;;;;3.40;1.00;;;;;;;-145.49;100.00;55703.94;2067223;28;20459;-67
2023/09/03 11:53:40;;;;;;;1.90;1.00;;;;;;;-145.49;100.00;55703.94;2059135;28;20455;-67
2023/09/03 11:54:42;;;;;;;1.60;0.90;;;;;;;-145.49;100.00;55703.94;2059143;28;20444;-66
2023/09/03 11:55:50;;;;;;;1.80;0.77;;;;;;;-145.49;100.00;55703.94;2066745;28;20523;-67
2023/09/03 11:56:58;;;;;;;1.67;0.80;;;;;;;-145.49;100.00;55703.94;2058862;28;20442;-66
2023/09/03 11:58:01;;;;;;;5.13;1.10;;;;;;;-145.49;100.00;55703.94;2058762;28;20463;-67
2023/09/03 11:59:04;;;;;;;1.50;0.70;;;;;;;-145.49;100.00;55703.94;2065101;28;20490;-66
2023/09/03 12:00:07;;;;;;;1.97;0.90;;;;;;;-145.49;100.00;55703.94;2063822;28;20443;-67
2023/09/03 12:01:09;;;;;;;2.33;1.33;;;;;;;-145.49;100.00;55703.94;2062800;28;20476;-67
2023/09/03 12:02:12;;;;;;;1.40;0.80;;;;;;;-145.49;100.00;55703.94;2061878;28;20476;-67
2023/09/03 12:03:14;;;;;;;2.37;1.00;;;;;;;-145.49;100.00;55703.94;2062371;28;20606;-67
2023/09/03 12:04:16;;;;;;;2.03;1.00;;;;;;;-145.49;100.00;55703.94;2061191;28;20475;-67
2023/09/03 12:05:18;;;;;;;1.77;1.00;;;;;;;-145.49;100.00;55703.94;2063962;28;20493;-67
2023/09/03 12:06:20;;;;;;;2.70;0.73;;;;;;;-145.49;100.00;55703.94;2061839;28;20478;-67
2023/09/03 12:07:22;;;;;;;1.47;0.90;;;;;;;-145.49;100.00;55703.94;2065527;28;20427;-67
2023/09/03 12:08:25;;;;;;;2.20;1.27;;;;;;;-145.49;100.00;55703.94;2065716;28;20505;-67
2023/09/03 12:09:26;;;;;;;1.87;0.90;;;;;;;-145.49;100.00;55703.94;2067679;28;21009;-67
2023/09/03 12:10:29;;;;;;;2.90;0.77;;;;;;;-145.49;100.00;55703.94;2066312;28;20841;-67
2023/09/03 12:11:30;;;;;;;1.20;0.90;;;;;;;-145.49;100.00;55703.94;2065616;28;20481;-67
2023/09/03 12:12:32;;;;;;;2.00;0.90;;;;;;;-145.49;100.00;55703.94;2062340;28;20431;-67